Time;durP1;ratioP1;P1;durP2;ratioP2;P2;SDS_P1;SDS_P2;PMS_P1;PMS_P2;Temp;Humidity;BMP_temperature;BMP_pressure;BME280_temperature;BME280_humidity;BME280_pressure;Samples;Min_cycle;Max_cycle;Signal;HPM_P1;HPM_P2
2021/12/21 00:00:12;;;;;;;21.08;9.65;;;;;;;4.77;66.01;100715.59;4988966;28;20034;-81
2021/12/21 00:02:44;;;;;;;17.95;10.40;;;;;;;4.81;65.91;100725.97;4987880;28;20515;-83
2021/12/21 00:05:16;;;;;;;21.47;9.83;;;;;;;4.79;65.52;100719.00;4995613;28;20480;-82
2021/12/21 00:07:42;;;;;;;25.40;11.07;;;;;;;4.80;65.40;100716.25;4991723;28;20497;-81
2021/12/21 00:10:08;;;;;;;17.52;9.60;;;;;;;4.80;65.95;100720.75;4979161;28;20030;-83
2021/12/21 00:12:35;;;;;;;16.73;10.88;;;;;;;4.72;65.95;100712.31;4979200;28;20505;-83
2021/12/21 00:15:17;;;;;;;16.27;9.20;;;;;;;4.76;65.81;100713.84;4960829;28;20034;-83
2021/12/21 00:17:58;;;;;;;25.55;11.00;;;;;;;4.65;66.42;100716.25;4994592;28;20034;-84
2021/12/21 00:25:19;;;;;;;14.63;9.60;;;;;;;4.53;67.23;100706.28;4976729;28;20038;-81
2021/12/21 00:27:47;;;;;;;17.02;10.23;;;;;;;4.47;67.05;100704.81;4976091;28;20046;-83
2021/12/21 00:30:13;;;;;;;15.93;10.05;;;;;;;4.44;67.20;100712.97;4976133;28;20027;-83
2021/12/21 00:32:38;;;;;;;23.05;11.07;;;;;;;4.38;67.33;100706.19;4976598;28;20149;-82
2021/12/21 00:35:05;;;;;;;27.17;13.65;;;;;;;4.35;67.37;100692.16;4976415;28;20059;-82
2021/12/21 00:37:31;;;;;;;20.70;11.20;;;;;;;4.41;67.38;100702.47;4989522;28;20085;-82
2021/12/21 00:39:57;;;;;;;17.63;11.52;;;;;;;4.39;67.52;100694.59;4995064;28;20030;-83
2021/12/21 00:42:22;;;;;;;22.70;13.63;;;;;;;4.42;67.45;100700.69;4995426;28;20038;-82
2021/12/21 00:44:48;;;;;;;22.95;14.88;;;;;;;4.44;67.18;100701.44;4991949;28;20038;-82
2021/12/21 00:47:15;;;;;;;23.17;14.30;;;;;;;4.36;67.22;100700.09;4994980;28;20473;-82
2021/12/21 00:49:46;;;;;;;27.25;13.65;;;;;;;4.33;67.52;100694.94;4982833;28;20023;-82
2021/12/21 00:52:13;;;;;;;22.15;13.05;;;;;;;4.27;67.45;100691.75;4975719;28;20472;-82
2021/12/21 00:54:39;;;;;;;30.10;15.38;;;;;;;4.26;67.21;100682.88;4975744;28;20030;-82
2021/12/21 00:57:05;;;;;;;27.95;14.57;;;;;;;4.20;67.39;100693.00;4975441;28;20037;-82
2021/12/21 00:59:32;;;;;;;26.15;15.23;;;;;;;4.25;67.27;100696.31;4975742;28;20031;-82
2021/12/21 01:01:57;;;;;;;30.83;15.55;;;;;;;4.07;67.20;100700.78;4995278;28;20480;-82
2021/12/21 01:04:29;;;;;;;24.20;14.43;;;;;;;4.06;67.11;100707.06;4994645;28;20030;-81
2021/12/21 01:07:06;;;;;;;27.88;14.70;;;;;;;4.00;67.32;100707.41;4977157;28;20030;-82
2021/12/21 01:12:05;;;;;;;23.27;13.55;;;;;;;3.79;67.40;100716.50;4975279;28;20035;-82
2021/12/21 01:17:22;;;;;;;31.40;14.30;;;;;;;3.74;67.61;100716.75;4975457;28;20053;-82
2021/12/21 01:19:59;;;;;;;26.85;13.48;;;;;;;3.73;67.79;100715.00;4994855;28;20022;-81
2021/12/21 01:22:51;;;;;;;25.73;14.63;;;;;;;3.75;67.71;100714.94;4995556;28;20504;-82
2021/12/21 01:25:33;;;;;;;23.90;14.90;;;;;;;3.80;67.36;100705.78;4993698;28;20046;-81
2021/12/21 01:35:45;;;;;;;19.88;12.32;;;;;;;3.71;66.75;100721.34;4985105;28;20037;-83
2021/12/21 01:40:51;;;;;;;20.77;13.18;;;;;;;3.72;66.98;100723.09;4999302;28;20022;-82
2021/12/21 01:43:25;;;;;;;35.90;13.10;;;;;;;3.63;66.58;100708.47;4993420;28;20109;-82
2021/12/21 01:51:20;;;;;;;26.20;12.05;;;;;;;3.64;66.72;100709.34;4998889;28;20108;-82
2021/12/21 01:53:47;;;;;;;17.42;11.32;;;;;;;3.60;66.65;100710.41;4997828;28;20038;-82
2021/12/21 01:56:14;;;;;;;18.25;10.93;;;;;;;3.66;66.67;100704.78;4992012;28;20041;-82
2021/12/21 01:58:40;;;;;;;20.55;9.90;;;;;;;3.72;66.38;100702.66;4995276;28;20455;-82
2021/12/21 02:01:07;;;;;;;21.02;9.93;;;;;;;3.64;65.93;100693.38;5004551;28;20030;-82
2021/12/21 02:03:33;;;;;;;17.65;10.30;;;;;;;3.75;65.91;100702.50;4974810;28;20093;-78
2021/12/21 02:05:59;;;;;;;16.60;9.55;;;;;;;3.70;65.48;100699.22;4991388;28;20070;-78
2021/12/21 02:08:24;;;;;;;48.38;11.90;;;;;;;3.73;65.29;100703.53;4999835;28;20471;-78
2021/12/21 02:10:50;;;;;;;15.93;9.65;;;;;;;3.67;65.18;100699.38;4998511;28;20027;-78
2021/12/21 02:13:16;;;;;;;30.65;11.25;;;;;;;3.79;65.54;100712.03;4987776;28;20038;-78
2021/12/21 02:15:41;;;;;;;19.45;9.25;;;;;;;3.73;65.11;100703.53;4987495;28;20054;-78
2021/12/21 02:20:56;;;;;;;13.93;7.40;;;;;;;3.82;64.78;100719.00;4987706;28;20041;-78
2021/12/21 02:23:32;;;;;;;18.60;8.48;;;;;;;3.83;64.38;100720.72;4987156;28;20078;-78
2021/12/21 02:26:34;;;;;;;15.98;9.27;;;;;;;3.80;64.25;100723.53;4988004;28;20495;-78
2021/12/21 02:31:09;;;;;;;15.80;9.05;;;;;;;3.76;64.52;100727.31;4986072;28;20094;-78
2021/12/21 02:33:35;;;;;;;15.50;7.65;;;;;;;3.75;64.98;100723.78;4987777;28;20030;-78
2021/12/21 02:36:02;;;;;;;13.80;7.85;;;;;;;3.83;64.98;100726.91;4986607;28;20027;-78
2021/12/21 02:38:28;;;;;;;17.90;9.52;;;;;;;3.78;65.09;100715.66;4986207;28;20028;-78
2021/12/21 02:40:55;;;;;;;14.73;9.35;;;;;;;3.88;65.09;100729.34;4987497;28;20019;-78
2021/12/21 02:43:21;;;;;;;14.82;8.77;;;;;;;3.86;65.05;100720.56;4986399;28;20098;-78
2021/12/21 02:45:46;;;;;;;14.52;7.07;;;;;;;3.84;65.15;100733.09;4988622;28;20516;-78
2021/12/21 02:48:12;;;;;;;11.38;7.50;;;;;;;3.85;64.92;100724.16;4985146;28;20042;-78
2021/12/21 02:50:39;;;;;;;16.13;6.20;;;;;;;3.87;65.31;100724.94;4985732;28;20049;-78
2021/12/21 02:53:07;;;;;;;13.27;9.70;;;;;;;3.80;64.87;100724.41;4984322;28;20026;-78
2021/12/21 02:55:32;;;;;;;19.10;7.35;;;;;;;3.80;64.74;100726.19;4967313;28;20046;-78
2021/12/21 02:57:58;;;;;;;12.80;7.97;;;;;;;3.84;65.04;100728.63;4988250;28;20046;-77
2021/12/21 03:00:25;;;;;;;15.50;8.18;;;;;;;3.84;65.07;100722.44;4987953;28;20041;-77
2021/12/21 03:02:51;;;;;;;12.27;7.82;;;;;;;3.62;65.30;100721.81;4985181;28;20109;-77
2021/12/21 03:05:17;;;;;;;16.67;9.90;;;;;;;3.67;65.46;100727.78;4986747;28;20503;-78
2021/12/21 03:10:14;;;;;;;16.15;7.65;;;;;;;3.59;65.28;100732.63;4984529;28;20057;-77
2021/12/21 03:15:22;;;;;;;14.60;10.65;;;;;;;3.46;65.94;100739.47;4987221;28;20491;-78
2021/12/21 03:17:48;;;;;;;14.18;8.45;;;;;;;3.38;65.95;100744.34;4989989;28;20125;-77
2021/12/21 03:20:14;;;;;;;14.13;8.45;;;;;;;3.38;66.23;100742.53;4985030;28;20015;-77
2021/12/21 03:22:40;;;;;;;14.65;8.88;;;;;;;3.43;66.33;100744.97;4988213;28;20042;-77
2021/12/21 03:25:06;;;;;;;13.15;8.35;;;;;;;3.45;66.64;100751.06;4985842;28;20068;-78
2021/12/21 03:27:32;;;;;;;10.48;7.10;;;;;;;3.28;66.79;100755.44;4987014;28;20026;-79
2021/12/21 03:29:57;;;;;;;12.40;8.95;;;;;;;3.20;66.93;100752.31;4985272;28;20019;-78
2021/12/21 03:32:23;;;;;;;13.48;8.05;;;;;;;3.28;67.47;100755.44;4985193;28;20034;-78
2021/12/21 03:34:49;;;;;;;13.85;7.97;;;;;;;3.20;67.45;100762.94;4985254;28;20057;-78
2021/12/21 03:37:15;;;;;;;20.35;8.88;;;;;;;3.17;67.35;100768.41;4986941;28;20033;-78
2021/12/21 03:39:42;;;;;;;13.27;8.07;;;;;;;3.18;67.52;100775.41;4968287;28;20401;-79
2021/12/21 03:42:09;;;;;;;16.88;8.60;;;;;;;3.19;67.75;100765.66;4984581;28;20022;-79
2021/12/21 03:44:35;;;;;;;20.20;8.95;;;;;;;3.19;67.71;100766.50;4986387;28;20014;-78
2021/12/21 03:47:01;;;;;;;15.90;8.75;;;;;;;3.28;67.95;100770.50;4984765;28;20018;-79
2021/12/21 03:52:13;;;;;;;13.70;8.73;;;;;;;3.32;67.03;100776.53;4985749;28;20045;-77
2021/12/21 03:54:41;;;;;;;21.92;8.52;;;;;;;3.36;66.90;100778.13;4986433;28;20030;-77
2021/12/21 03:57:07;;;;;;;12.98;7.60;;;;;;;3.40;67.23;100775.22;4985827;28;20066;-78
2021/12/21 03:59:33;;;;;;;11.95;8.15;;;;;;;3.44;67.04;100770.63;4984151;28;20500;-77
2021/12/21 04:01:59;;;;;;;16.63;10.20;;;;;;;3.35;66.57;100771.94;4967980;28;20026;-78
2021/12/21 04:04:25;;;;;;;15.68;9.27;;;;;;;3.36;66.48;100780.78;4967729;28;20397;-77
2021/12/21 04:06:51;;;;;;;16.45;9.18;;;;;;;3.36;66.45;100794.06;4983674;28;20042;-78
2021/12/21 04:09:17;;;;;;;17.70;8.60;;;;;;;3.39;66.69;100780.63;4983969;28;20014;-78
2021/12/21 04:11:43;;;;;;;11.55;7.07;;;;;;;3.38;66.36;100782.41;4986353;28;20037;-77
2021/12/21 04:14:11;;;;;;;21.15;8.57;;;;;;;3.15;67.14;100793.31;4984182;28;20034;-77
2021/12/21 04:16:37;;;;;;;14.43;7.90;;;;;;;3.07;67.16;100788.38;4986202;28;20018;-77
2021/12/21 04:19:03;;;;;;;14.27;8.25;;;;;;;3.06;67.45;100791.94;4984715;28;20034;-77
2021/12/21 04:21:29;;;;;;;20.75;8.00;;;;;;;3.04;67.76;100791.16;4981516;28;20039;-78
2021/12/21 04:23:54;;;;;;;17.40;8.43;;;;;;;3.01;67.56;100788.66;4985634;28;20026;-78
2021/12/21 04:26:20;;;;;;;20.77;8.23;;;;;;;3.08;67.85;100784.78;4984713;28;20019;-78
2021/12/21 04:28:46;;;;;;;17.40;8.85;;;;;;;3.15;67.67;100794.16;4984141;28;20033;-78
2021/12/21 04:31:12;;;;;;;33.97;11.20;;;;;;;3.17;67.52;100794.09;4985557;28;20022;-79
2021/12/21 04:33:42;;;;;;;19.65;10.45;;;;;;;3.17;67.33;100786.13;4985050;28;20098;-77
2021/12/21 04:36:08;;;;;;;15.80;8.93;;;;;;;3.22;66.99;100798.25;4968727;28;20025;-77
2021/12/21 04:38:37;;;;;;;17.75;8.63;;;;;;;3.13;66.67;100792.53;4982873;28;20105;-78
2021/12/21 04:41:13;;;;;;;14.35;9.25;;;;;;;3.11;67.02;100800.59;4984533;28;20044;-78
2021/12/21 04:43:40;;;;;;;12.88;8.48;;;;;;;2.92;67.38;100810.34;4968869;28;20030;-77
2021/12/21 04:46:05;;;;;;;15.30;8.80;;;;;;;2.93;67.27;100809.44;4983494;28;20025;-77
2021/12/21 04:48:31;;;;;;;23.45;10.48;;;;;;;2.91;67.34;100813.94;4967780;28;20026;-77
2021/12/21 04:50:56;;;;;;;22.38;10.40;;;;;;;2.88;67.67;100822.03;4985548;28;20011;-77
2021/12/21 04:53:22;;;;;;;20.90;9.55;;;;;;;2.80;67.89;100824.19;4984001;28;20482;-77
2021/12/21 04:55:48;;;;;;;19.60;10.07;;;;;;;2.86;67.97;100826.56;4984361;28;20033;-79
2021/12/21 04:58:13;;;;;;;14.48;8.77;;;;;;;3.03;67.68;100839.91;4982562;28;20041;-77
2021/12/21 05:00:39;;;;;;;16.05;9.00;;;;;;;2.92;67.43;100833.38;4984013;28;20121;-78
2021/12/21 05:03:05;;;;;;;19.35;10.70;;;;;;;2.88;67.70;100840.63;4983662;28;20019;-77
2021/12/21 05:05:31;;;;;;;19.75;10.90;;;;;;;2.83;67.91;100853.28;4982781;28;20030;-78
2021/12/21 05:08:22;;;;;;;22.20;11.90;;;;;;;2.84;67.75;100836.41;4982527;28;20092;-77
2021/12/21 05:10:52;;;;;;;18.33;8.52;;;;;;;2.87;67.62;100854.88;4985378;28;20030;-77
2021/12/21 05:13:20;;;;;;;14.85;8.88;;;;;;;2.87;67.56;100852.22;4984978;28;20023;-77
2021/12/21 05:15:46;;;;;;;23.77;11.90;;;;;;;2.98;67.77;100854.34;4983190;28;20061;-79
2021/12/21 05:18:21;;;;;;;22.60;8.70;;;;;;;3.01;67.42;100851.56;4982182;28;20091;-80
2021/12/21 05:20:47;;;;;;;13.50;8.25;;;;;;;2.91;67.37;100848.47;4983345;28;20514;-77
2021/12/21 05:23:12;;;;;;;20.20;9.07;;;;;;;2.88;67.48;100845.94;4981823;28;20051;-78
2021/12/21 05:25:39;;;;;;;32.47;9.60;;;;;;;2.90;67.31;100845.88;4985005;28;20042;-79
2021/12/21 05:28:05;;;;;;;28.15;11.20;;;;;;;2.87;67.58;100851.34;4983819;28;20564;-79
2021/12/21 05:30:34;;;;;;;18.35;10.23;;;;;;;2.81;67.72;100849.84;4982403;28;20022;-78
2021/12/21 05:32:59;;;;;;;32.65;10.57;;;;;;;2.87;68.04;100854.00;4985761;28;20022;-78
2021/12/21 05:35:26;;;;;;;20.60;10.32;;;;;;;2.90;67.83;100860.03;4964711;28;20025;-78
2021/12/21 05:37:55;;;;;;;25.20;13.30;;;;;;;2.97;67.69;100860.59;4982832;28;21469;-78
2021/12/21 05:40:21;;;;;;;19.65;11.13;;;;;;;2.98;67.47;100873.81;4981490;28;20068;-78
2021/12/21 05:42:48;;;;;;;30.33;11.48;;;;;;;3.01;67.44;100873.69;4980922;28;20018;-77
2021/12/21 05:45:17;;;;;;;36.38;12.85;;;;;;;3.09;67.37;100889.25;4983719;28;20496;-77
2021/12/21 05:47:44;;;;;;;59.25;24.27;;;;;;;3.13;67.09;100881.06;4982001;28;20077;-75
2021/12/21 05:50:15;;;;;;;73.70;30.65;;;;;;;3.19;67.11;100894.06;4981753;28;20101;-77
2021/12/21 05:52:41;;;;;;;45.30;18.40;;;;;;;3.19;66.68;100890.53;4982798;28;20097;-79
2021/12/21 05:55:08;;;;;;;51.88;13.40;;;;;;;3.20;66.77;100885.19;4983325;28;20033;-78
2021/12/21 05:57:34;;;;;;;34.42;10.63;;;;;;;3.37;66.89;100895.00;4983844;28;20118;-76
2021/12/21 05:59:59;;;;;;;33.70;12.57;;;;;;;3.34;66.27;100894.28;4982151;28;20069;-77
2021/12/21 06:02:25;;;;;;;28.50;12.60;;;;;;;3.38;65.92;100898.53;4983245;28;20492;-76
2021/12/21 06:04:50;;;;;;;38.90;13.13;;;;;;;3.40;65.73;100896.63;4981405;28;20097;-77
2021/12/21 06:07:16;;;;;;;21.38;12.50;;;;;;;3.30;66.07;100891.75;4984145;28;20041;-76
2021/12/21 06:09:45;;;;;;;62.53;14.90;;;;;;;3.37;65.87;100902.09;4985072;28;20022;-76
2021/12/21 06:12:40;;;;;;;43.40;11.43;;;;;;;3.35;65.72;100902.19;4983792;28;20119;-76
2021/12/21 06:24:31;;;;;;;19.10;10.73;;;;;;;3.24;65.65;100929.25;4984167;28;20041;-80
2021/12/21 06:26:31;;;;;;;42.30;15.40;;;;;;;3.18;65.80;100929.53;4986399;28;20056;-78
2021/12/21 06:28:57;;;;;;;29.27;14.13;;;;;;;3.20;66.08;100926.81;4988071;28;20473;-76
2021/12/21 06:31:23;;;;;;;44.67;12.88;;;;;;;3.23;65.84;100934.66;4986904;28;20515;-78
2021/12/21 06:33:50;;;;;;;22.88;13.20;;;;;;;3.33;66.26;100943.06;4975774;28;20034;-77
2021/12/21 06:36:15;;;;;;;43.92;14.52;;;;;;;3.22;65.97;100941.75;4976481;28;20477;-78
2021/12/21 06:38:41;;;;;;;51.58;15.27;;;;;;;3.13;66.04;100926.25;4976307;28;20026;-77
2021/12/21 06:41:07;;;;;;;41.10;15.70;;;;;;;3.25;66.13;100935.44;4976127;28;20094;-76
2021/12/21 06:43:33;;;;;;;29.50;13.80;;;;;;;3.20;66.15;100933.00;4976475;28;20451;-76
2021/12/21 06:46:44;;;;;;;30.70;14.50;;;;;;;3.20;66.06;100943.66;4976433;28;20019;-79
2021/12/21 06:53:56;;;;;;;29.52;12.43;;;;;;;3.14;66.72;100949.25;4976172;28;20523;-79
2021/12/21 06:56:23;;;;;;;37.33;14.10;;;;;;;3.10;66.82;100947.66;4977047;28;20030;-78
2021/12/21 06:58:53;;;;;;;28.98;11.70;;;;;;;3.11;66.95;100949.38;4976369;28;20082;-77
2021/12/21 07:01:19;;;;;;;23.33;11.60;;;;;;;3.16;66.71;100965.97;4975759;28;20018;-77
2021/12/21 07:03:45;;;;;;;25.25;10.70;;;;;;;3.09;67.23;100967.16;4958810;28;20033;-79
2021/12/21 07:06:11;;;;;;;31.02;10.88;;;;;;;3.10;67.41;100966.25;4976087;28;20101;-77
2021/12/21 07:08:46;;;;;;;33.45;14.10;;;;;;;3.10;67.47;100958.28;4975947;28;20044;-78
2021/12/21 07:19:40;;;;;;;37.40;16.33;;;;;;;3.12;67.64;100961.72;4987877;28;20033;-77
2021/12/21 07:22:06;;;;;;;30.42;13.70;;;;;;;3.18;67.59;100956.13;4982858;28;20070;-77
2021/12/21 07:24:32;;;;;;;23.02;11.68;;;;;;;3.25;67.23;100956.69;4976609;28;20046;-77
2021/12/21 07:26:58;;;;;;;29.00;12.02;;;;;;;3.31;67.52;100967.06;4986258;28;20615;-75
2021/12/21 07:29:24;;;;;;;32.75;10.85;;;;;;;3.36;67.26;100974.84;4994560;28;20105;-77
2021/12/21 07:31:50;;;;;;;23.98;11.82;;;;;;;3.28;67.15;100969.84;4995128;28;20050;-74
2021/12/21 07:34:16;;;;;;;26.52;11.38;;;;;;;3.23;67.25;100964.75;4993968;28;20065;-76
2021/12/21 07:36:43;;;;;;;24.77;12.70;;;;;;;3.28;67.28;100965.41;4994062;28;20022;-77
2021/12/21 07:39:11;;;;;;;28.08;17.15;;;;;;;3.27;67.71;100979.63;4994564;28;20049;-76
2021/12/21 07:41:37;;;;;;;27.60;16.15;;;;;;;3.29;67.86;100969.78;4994329;28;20081;-76
2021/12/21 07:44:03;;;;;;;19.95;11.48;;;;;;;3.37;67.72;100979.19;4994196;28;20026;-77
2021/12/21 07:46:29;;;;;;;20.13;10.93;;;;;;;3.44;67.74;100977.97;4994474;28;20458;-77
2021/12/21 07:48:55;;;;;;;21.15;9.75;;;;;;;3.51;67.52;100974.13;4995286;28;20030;-77
2021/12/21 07:51:20;;;;;;;27.23;12.07;;;;;;;3.60;67.22;100979.88;4994450;28;20018;-76
2021/12/21 07:53:47;;;;;;;25.90;12.48;;;;;;;3.64;66.77;100985.91;4994175;28;20030;-75
2021/12/21 07:56:16;;;;;;;35.67;12.52;;;;;;;3.85;66.61;100992.88;4994597;28;20026;-75
2021/12/21 07:58:42;;;;;;;22.83;12.70;;;;;;;3.95;65.73;100974.63;4994074;28;20045;-76
2021/12/21 08:01:08;;;;;;;20.00;10.85;;;;;;;4.10;65.42;100995.19;4994068;28;20019;-76
2021/12/21 08:03:35;;;;;;;23.60;10.52;;;;;;;4.13;65.09;100993.22;4976022;28;20094;-76
2021/12/21 08:06:06;;;;;;;22.00;11.93;;;;;;;4.23;65.00;101002.50;4994765;28;20037;-77
2021/12/21 08:08:34;;;;;;;25.55;14.07;;;;;;;4.28;64.73;101011.09;4994343;28;20551;-77
2021/12/21 08:11:11;;;;;;;33.10;15.00;;;;;;;4.36;64.54;101008.94;4994434;28;20027;-75
2021/12/21 08:13:38;;;;;;;34.83;17.58;;;;;;;4.45;63.86;101014.75;4994485;28;20049;-78
2021/12/21 08:16:04;;;;;;;32.00;14.95;;;;;;;4.45;64.22;101012.09;4994004;28;20400;-78
2021/12/21 08:18:30;;;;;;;30.17;14.75;;;;;;;4.46;64.21;101013.81;4989415;28;20026;-77
2021/12/21 08:20:55;;;;;;;35.45;12.60;;;;;;;4.53;64.15;101020.53;4959543;28;20416;-76
2021/12/21 08:23:21;;;;;;;24.77;12.27;;;;;;;4.48;63.57;101011.94;4974292;28;20543;-76
2021/12/21 08:25:46;;;;;;;30.45;15.07;;;;;;;4.65;63.46;101019.91;4975421;28;20026;-76
2021/12/21 08:28:12;;;;;;;24.02;10.05;;;;;;;4.69;62.91;101037.47;4974427;28;20154;-76
2021/12/21 08:30:38;;;;;;;11.85;7.90;;;;;;;4.65;61.53;101034.09;4974104;28;20088;-76
2021/12/21 08:33:04;;;;;;;16.98;9.13;;;;;;;4.60;61.73;101035.28;4973638;28;20034;-76
2021/12/21 08:35:31;;;;;;;14.25;9.23;;;;;;;4.54;61.43;101035.59;4973068;28;20023;-78
2021/12/21 08:38:03;;;;;;;11.32;7.60;;;;;;;4.42;60.74;101041.53;4974128;28;20027;-77
2021/12/21 08:40:36;;;;;;;14.07;7.88;;;;;;;4.24;61.34;101046.81;4972998;28;20154;-76
2021/12/21 08:43:04;;;;;;;31.92;9.82;;;;;;;4.16;61.75;101038.31;4972929;28;20018;-76
2021/12/21 08:45:31;;;;;;;19.77;9.80;;;;;;;4.10;61.96;101064.38;4973032;28;20037;-77
2021/12/21 08:47:58;;;;;;;17.00;8.43;;;;;;;4.00;61.46;101042.69;4972312;28;20037;-77
2021/12/21 08:50:24;;;;;;;18.88;10.40;;;;;;;3.99;61.69;101050.72;4974219;28;20485;-78
2021/12/21 08:52:49;;;;;;;25.38;11.35;;;;;;;3.96;61.77;101054.41;4956850;28;20034;-77
2021/12/21 08:55:17;;;;;;;26.90;12.52;;;;;;;4.03;61.82;101063.84;4973846;28;20023;-77
2021/12/21 08:57:43;;;;;;;17.35;10.48;;;;;;;4.09;61.44;101062.66;4974043;28;20023;-77
2021/12/21 09:00:09;;;;;;;26.45;11.75;;;;;;;4.10;62.03;101070.56;4976309;28;20023;-78
2021/12/21 09:02:36;;;;;;;14.95;10.93;;;;;;;4.32;61.94;101065.94;4975941;28;20030;-78
2021/12/21 09:05:11;;;;;;;21.05;10.38;;;;;;;4.39;62.02;101066.50;4974453;28;20053;-76
2021/12/21 09:07:44;;;;;;;31.63;12.25;;;;;;;4.50;62.09;101074.81;4973596;28;20157;-75
2021/12/21 09:10:12;;;;;;;16.83;8.82;;;;;;;4.74;60.71;101075.44;4974041;28;20124;-76
2021/12/21 09:12:38;;;;;;;20.02;9.32;;;;;;;4.69;60.17;101085.44;4973743;28;20031;-76
2021/12/21 09:15:05;;;;;;;15.75;9.50;;;;;;;4.64;60.77;101082.16;4973804;28;20046;-76
2021/12/21 09:17:31;;;;;;;19.38;9.60;;;;;;;4.58;59.71;101099.31;4973614;28;20474;-76
2021/12/21 09:19:57;;;;;;;21.90;10.63;;;;;;;4.50;60.12;101100.59;4973533;28;20019;-76
2021/12/21 09:22:23;;;;;;;14.60;9.05;;;;;;;4.45;60.56;101107.94;4973365;28;20050;-75
2021/12/21 09:24:48;;;;;;;17.70;9.73;;;;;;;4.49;60.80;101114.88;4974248;28;20027;-76
2021/12/21 09:27:16;;;;;;;17.65;9.77;;;;;;;4.48;60.26;101114.00;4973597;28;20106;-76
2021/12/21 09:29:42;;;;;;;16.27;9.60;;;;;;;4.45;60.13;101123.94;4973521;28;20098;-77
2021/12/21 09:32:12;;;;;;;20.85;10.93;;;;;;;4.42;60.29;101118.75;4973451;28;20045;-76
2021/12/21 09:34:42;;;;;;;31.85;12.43;;;;;;;4.44;60.32;101116.88;4974037;28;20023;-77
2021/12/21 09:37:14;;;;;;;20.60;12.38;;;;;;;4.51;60.86;101123.63;4973821;28;20023;-77
2021/12/21 09:39:44;;;;;;;15.20;8.88;;;;;;;4.59;60.34;101129.44;4973745;28;20026;-76
2021/12/21 09:42:14;;;;;;;22.40;10.52;;;;;;;4.60;59.88;101129.38;4973200;28;20046;-78
2021/12/21 09:44:40;;;;;;;20.58;10.35;;;;;;;4.77;59.77;101139.22;4973389;28;20106;-76
2021/12/21 09:47:09;;;;;;;48.90;16.02;;;;;;;4.85;59.37;101123.72;4956481;28;20026;-78
2021/12/21 09:49:35;;;;;;;23.83;13.13;;;;;;;4.84;59.42;101111.31;4973195;28;20037;-77
2021/12/21 09:52:02;;;;;;;43.63;15.90;;;;;;;5.05;59.35;101130.69;4973304;28;20031;-77
2021/12/21 09:54:27;;;;;;;32.45;10.45;;;;;;;5.07;58.83;101124.38;4972928;28;20027;-77
2021/12/21 09:56:53;;;;;;;28.75;12.40;;;;;;;5.22;59.00;101130.72;4956157;28;20057;-76
2021/12/21 09:59:18;;;;;;;64.97;14.95;;;;;;;5.35;58.77;101113.97;4974817;28;20092;-77
2021/12/21 10:01:44;;;;;;;59.50;12.60;;;;;;;5.53;58.51;101130.84;4978385;28;20042;-76
2021/12/21 10:04:09;;;;;;;18.00;10.23;;;;;;;5.67;57.31;101130.09;4977296;28;20030;-78
2021/12/21 10:06:54;;;;;;;18.40;8.85;;;;;;;5.73;56.46;101125.31;4977785;28;20560;-77
2021/12/21 10:09:23;;;;;;;33.88;13.90;;;;;;;5.79;56.39;101126.78;4977506;28;20138;-76
2021/12/21 10:11:50;;;;;;;30.20;12.60;;;;;;;5.82;56.23;101126.63;4977898;28;20038;-77
2021/12/21 10:14:18;;;;;;;32.40;10.18;;;;;;;5.87;55.56;101127.28;4977701;28;20034;-77
2021/12/21 10:16:47;;;;;;;16.42;10.02;;;;;;;5.77;55.41;101126.00;4977565;28;20027;-76
2021/12/21 10:19:26;;;;;;;27.80;14.40;;;;;;;5.73;55.56;101135.13;4977823;28;20057;-78
2021/12/21 10:21:51;;;;;;;15.90;9.40;;;;;;;5.71;55.78;101126.34;4960628;28;20057;-77
2021/12/21 10:24:28;;;;;;;17.35;9.63;;;;;;;5.68;55.66;101126.50;4977451;28;20031;-77
2021/12/21 10:27:06;;;;;;;24.85;9.52;;;;;;;5.45;55.47;101133.91;4977236;28;20031;-77
2021/12/21 10:29:50;;;;;;;15.63;7.57;;;;;;;5.40;56.18;101135.97;4976608;28;20465;-76
2021/12/21 10:32:21;;;;;;;27.30;12.05;;;;;;;5.36;56.53;101141.50;4976448;28;20046;-76
2021/12/21 10:35:00;;;;;;;26.48;13.23;;;;;;;5.43;56.62;101148.28;4976830;28;20107;-76
2021/12/21 10:37:29;;;;;;;21.77;11.82;;;;;;;5.34;56.26;101154.94;4976744;28;20031;-76
2021/12/21 10:40:24;;;;;;;23.95;10.80;;;;;;;5.22;56.79;101157.38;4976257;28;20109;-76
2021/12/21 10:43:00;;;;;;;22.85;11.50;;;;;;;5.20;56.51;101149.44;4976401;28;20023;-76
2021/12/21 10:45:32;;;;;;;30.20;16.00;;;;;;;5.13;56.76;101149.84;4959928;28;20104;-76
2021/12/21 10:47:59;;;;;;;24.50;10.95;;;;;;;5.01;57.10;101156.66;4976634;28;20461;-78
2021/12/21 10:50:26;;;;;;;25.08;12.43;;;;;;;4.89;57.53;101157.28;4942864;28;20042;-76
2021/12/21 10:52:57;;;;;;;22.70;12.63;;;;;;;4.92;57.64;101157.13;4976342;28;20033;-77
2021/12/21 10:55:37;;;;;;;22.27;13.27;;;;;;;4.94;57.65;101172.09;4959065;28;20039;-76
2021/12/21 10:58:13;;;;;;;22.48;11.75;;;;;;;4.99;57.19;101169.19;4960023;28;20089;-77
2021/12/21 11:00:44;;;;;;;18.95;10.93;;;;;;;4.96;57.06;101158.66;4976554;28;20030;-77
2021/12/21 11:03:10;;;;;;;17.88;11.48;;;;;;;4.88;57.52;101163.53;4976144;28;20022;-76
2021/12/21 11:05:37;;;;;;;21.92;13.13;;;;;;;4.88;58.04;101168.84;4976695;28;20489;-77
2021/12/21 11:08:08;;;;;;;20.05;11.32;;;;;;;4.87;57.40;101168.00;4976239;28;20513;-77
2021/12/21 11:10:36;;;;;;;27.00;13.83;;;;;;;4.81;57.51;101176.28;4975112;28;20026;-77
2021/12/21 11:13:07;;;;;;;25.23;11.75;;;;;;;4.79;57.95;101171.97;4976371;28;20301;-76
2021/12/21 11:15:43;;;;;;;20.58;12.63;;;;;;;4.72;58.37;101175.88;4960845;28;20390;-77
2021/12/21 11:18:13;;;;;;;19.45;10.43;;;;;;;4.65;58.53;101179.75;4967437;28;20041;-74
2021/12/21 11:20:42;;;;;;;28.08;12.07;;;;;;;4.65;58.82;101177.97;4984558;28;20029;-77
2021/12/21 11:23:10;;;;;;;21.48;11.00;;;;;;;4.60;59.47;101176.47;4989779;28;20497;-76
2021/12/21 11:25:36;;;;;;;30.58;15.70;;;;;;;4.67;59.65;101175.25;4995018;28;20058;-76
2021/12/21 11:28:04;;;;;;;21.42;11.30;;;;;;;4.52;59.37;101162.66;4995147;28;20022;-78
2021/12/21 11:30:30;;;;;;;18.27;11.40;;;;;;;4.56;59.54;101181.06;4991335;28;20095;-75
2021/12/21 11:32:57;;;;;;;25.42;13.57;;;;;;;4.64;59.23;101172.72;4983486;28;20460;-78
2021/12/21 11:38:00;;;;;;;27.77;11.45;;;;;;;4.55;58.99;101179.34;4985374;28;20396;-78
2021/12/21 11:40:31;;;;;;;56.95;15.43;;;;;;;4.52;58.99;101163.53;4983546;28;20019;-78
2021/12/21 11:43:21;;;;;;;31.60;11.90;;;;;;;4.51;58.78;101167.13;4986298;28;20034;-77
2021/12/21 11:45:57;;;;;;;28.05;9.40;;;;;;;4.48;58.56;101169.06;4985739;28;20487;-77
2021/12/21 11:48:58;;;;;;;50.47;10.85;;;;;;;4.43;58.93;101163.97;4982911;28;20030;-76
2021/12/21 11:51:26;;;;;;;17.92;8.80;;;;;;;4.44;58.24;101167.47;4983456;28;20101;-77
2021/12/21 11:53:53;;;;;;;36.75;12.05;;;;;;;4.43;58.00;101158.63;4979029;28;20026;-76
2021/12/21 11:56:22;;;;;;;45.80;14.13;;;;;;;4.38;58.70;101157.97;4974839;28;20037;-76
2021/12/21 11:58:50;;;;;;;96.15;16.58;;;;;;;4.54;58.17;101155.44;4974596;28;20026;-77
2021/12/21 12:01:23;;;;;;;40.92;12.80;;;;;;;4.65;57.75;101158.44;4976525;28;20029;-78
2021/12/21 12:04:11;;;;;;;37.72;13.52;;;;;;;4.66;57.30;101157.53;4975222;28;20030;-78
2021/12/21 12:06:46;;;;;;;29.60;11.23;;;;;;;4.83;57.51;101185.06;4974352;28;20073;-77
2021/12/21 12:09:22;;;;;;;20.92;11.65;;;;;;;4.86;57.33;101176.06;4974477;28;20027;-76
2021/12/21 12:11:48;;;;;;;40.53;12.93;;;;;;;4.87;56.82;101181.31;4984461;28;20018;-77
2021/12/21 12:14:22;;;;;;;28.63;12.40;;;;;;;4.79;57.16;101204.81;4995889;28;20096;-76
2021/12/21 12:16:52;;;;;;;36.75;12.25;;;;;;;4.79;56.87;101196.81;4994817;28;20061;-76
2021/12/21 12:19:21;;;;;;;57.95;12.43;;;;;;;4.65;56.97;101201.94;4995231;28;20038;-77
2021/12/21 12:22:00;;;;;;;27.90;12.05;;;;;;;4.61;56.95;101210.16;4994482;28;20101;-76
2021/12/21 12:24:34;;;;;;;28.17;11.38;;;;;;;4.76;57.07;101228.94;4994742;28;20042;-76
2021/12/21 12:27:09;;;;;;;18.48;10.63;;;;;;;4.76;56.42;101226.28;4994619;28;20034;-76
2021/12/21 12:29:46;;;;;;;33.67;12.80;;;;;;;4.75;56.34;101235.22;4994733;28;20026;-76